Terminal Aerodrome Forecast
Issued by NWS Sioux Falls, SD

Home | Current Version | Previous Version | Graphics & Text | Print | Product List | Glossary Off
Versions: 1 2 3 4 5 6 7 8 9 10 11 12 13 14 15 16

000
FTUS43 KFSD 130500
TAFFSD
TAF
KFSD 130539Z 1306/1406 03007KT P6SM SCT150 BKN200
     FM130900 01017G26KT P6SM SCT015 BKN100
     FM131300 36019G30KT P6SM -RA BKN020 OVC060
     FM131600 01021G29KT P6SM SCT025 OVC070
     FM132100 36023G34KT P6SM BKN100
     FM140200 36019G28KT P6SM BKN120=

USA.gov is the U.S. government's official web portal to all federal, state and local government web resources and services.